createdAt,value
2023-03-02T00:00:16.123Z,27.88
2023-03-02T00:02:22.288Z,25.05
2023-03-02T00:04:27.980Z,26.90
2023-03-02T00:06:32.366Z,24.48
2023-03-02T00:08:37.453Z,27.35
2023-03-02T00:10:40.199Z,23.02
2023-03-02T00:12:42.930Z,28.95
2023-03-02T00:14:45.847Z,27.65
2023-03-02T00:16:48.508Z,27.58
2023-03-02T00:18:51.183Z,30.02
2023-03-02T00:20:53.888Z,27.60
2023-03-02T00:22:56.632Z,25.73
2023-03-02T00:25:00.716Z,26.13
2023-03-02T00:27:03.400Z,24.05
2023-03-02T00:29:06.135Z,26.17
2023-03-02T00:31:08.996Z,30.48
2023-03-02T00:33:11.802Z,24.23
2023-03-02T00:35:14.502Z,23.55
2023-03-02T00:37:17.851Z,24.55
2023-03-02T00:39:20.627Z,27.48
2023-03-02T00:41:24.794Z,25.98
2023-03-02T00:43:28.181Z,27.45
2023-03-02T00:45:31.229Z,23.23
2023-03-02T00:47:35.300Z,23.95
2023-03-02T00:49:38.245Z,29.75
2023-03-02T00:51:41.002Z,25.17
2023-03-02T00:53:43.984Z,28.73
2023-03-02T00:55:54.629Z,27.98
2023-03-02T00:57:59.829Z,23.70
2023-03-02T01:00:06.862Z,28.88
2023-03-02T01:02:13.498Z,27.90
2023-03-02T01:04:16.291Z,30.42
2023-03-02T01:06:21.329Z,26.30
2023-03-02T01:08:25.113Z,29.77
2023-03-02T01:10:27.820Z,25.58
2023-03-02T01:12:30.573Z,30.65
2023-03-02T01:14:34.696Z,28.52
2023-03-02T01:16:37.702Z,28.42
2023-03-02T01:18:41.406Z,28.05
2023-03-02T01:20:44.121Z,22.13
2023-03-02T01:22:47.012Z,26.30
2023-03-02T01:24:50.309Z,27.00
2023-03-02T01:26:53.060Z,24.67
2023-03-02T01:28:56.347Z,27.20
2023-03-02T01:31:01.301Z,26.27
2023-03-02T01:33:04.144Z,26.45
2023-03-02T01:35:07.565Z,24.20
2023-03-02T01:37:10.266Z,27.10
2023-03-02T01:39:15.901Z,27.73
2023-03-02T01:41:18.914Z,28.23
2023-03-02T01:43:25.674Z,27.50
2023-03-02T01:45:57.131Z,28.85
2023-03-02T01:48:10.404Z,26.27
2023-03-02T01:50:20.834Z,29.35
2023-03-02T01:52:25.734Z,26.15
2023-03-02T01:54:28.904Z,29.55
2023-03-02T01:56:38.218Z,28.88
2023-03-02T01:58:41.269Z,27.67
2023-03-02T02:00:45.351Z,26.65
2023-03-02T02:02:48.753Z,26.98
2023-03-02T02:04:55.483Z,25.48
2023-03-02T02:07:03.224Z,26.20
2023-03-02T02:09:09.289Z,24.65
2023-03-02T02:11:12.586Z,24.63
2023-03-02T02:13:15.405Z,25.50
2023-03-02T02:15:18.908Z,28.75
2023-03-02T02:17:22.112Z,26.30
2023-03-02T02:19:37.086Z,27.30
2023-03-02T02:21:41.555Z,30.92
2023-03-02T02:23:51.306Z,25.27
2023-03-02T02:26:10.777Z,27.67
2023-03-02T02:28:18.928Z,29.30
2023-03-02T02:30:24.216Z,24.55
2023-03-02T02:32:30.281Z,26.38
2023-03-02T02:34:36.434Z,25.15
2023-03-02T02:36:43.207Z,27.70
2023-03-02T02:38:54.670Z,29.10
2023-03-02T02:41:01.012Z,29.17
2023-03-02T02:43:12.906Z,26.58
2023-03-02T02:45:22.364Z,30.05
2023-03-02T02:47:26.081Z,25.52
2023-03-02T02:49:33.285Z,29.63
2023-03-02T02:51:36.200Z,29.98
2023-03-02T02:53:45.650Z,27.23
2023-03-02T02:55:51.494Z,29.98
2023-03-02T02:57:57.463Z,28.77
2023-03-02T03:00:02.726Z,26.30
2023-03-02T03:02:08.034Z,29.38
2023-03-02T03:04:16.324Z,27.95
2023-03-02T03:06:23.253Z,27.00
2023-03-02T03:08:53.095Z,29.10
2023-03-02T03:11:01.220Z,28.65
2023-03-02T03:13:04.099Z,27.38
2023-03-02T03:15:09.739Z,26.77
2023-03-02T03:17:13.902Z,26.83
2023-03-02T03:19:26.698Z,27.23
2023-03-02T03:21:30.303Z,24.90
2023-03-02T03:23:33.154Z,26.75
2023-03-02T03:25:35.900Z,26.67
2023-03-02T03:27:39.274Z,30.83
2023-03-02T03:29:46.877Z,27.02
2023-03-02T03:31:52.464Z,37.40
2023-03-02T03:33:56.386Z,28.30
2023-03-02T03:36:00.732Z,27.42
2023-03-02T03:38:04.324Z,28.00
2023-03-02T03:40:11.426Z,29.50
2023-03-02T03:42:17.139Z,26.55
2023-03-02T03:44:20.819Z,27.50
2023-03-02T03:46:24.387Z,29.60
2023-03-02T03:48:29.017Z,27.38
2023-03-02T03:50:31.774Z,30.35
2023-03-02T03:52:34.593Z,33.83
2023-03-02T03:54:48.032Z,27.75
2023-03-02T03:56:51.966Z,27.23
2023-03-02T03:59:06.581Z,28.60
2023-03-02T04:01:13.376Z,29.92
2023-03-02T04:03:16.488Z,26.52
2023-03-02T04:05:20.926Z,27.33
2023-03-02T04:07:27.051Z,28.25
2023-03-02T04:09:32.116Z,28.88
2023-03-02T04:11:36.504Z,30.02
2023-03-02T04:13:39.443Z,28.95
2023-03-02T04:15:43.332Z,27.58
2023-03-02T04:17:48.249Z,30.50
2023-03-02T04:19:53.692Z,28.48
2023-03-02T04:21:58.489Z,29.10
2023-03-02T04:24:01.914Z,28.13
2023-03-02T04:26:05.235Z,29.70
2023-03-02T04:28:08.680Z,29.50
2023-03-02T04:30:15.399Z,28.88
2023-03-02T04:32:18.166Z,32.60
2023-03-02T04:34:26.494Z,31.70
2023-03-02T04:36:30.745Z,34.08
2023-03-02T04:38:37.601Z,36.35
2023-03-02T04:40:40.387Z,35.78
2023-03-02T04:42:44.628Z,30.73
2023-03-02T04:44:47.721Z,35.95
2023-03-02T04:46:51.351Z,36.30
2023-03-02T04:48:54.470Z,35.00
2023-03-02T04:50:57.266Z,33.28
2023-03-02T04:52:59.996Z,32.45
2023-03-02T04:55:04.564Z,31.17
2023-03-02T04:57:08.489Z,31.70
2023-03-02T04:59:11.478Z,29.63
2023-03-02T05:01:15.857Z,31.17
2023-03-02T05:03:18.613Z,31.95
2023-03-02T05:05:22.901Z,29.88
2023-03-02T05:07:25.667Z,31.92
2023-03-02T05:09:30.761Z,31.58
2023-03-02T05:11:35.267Z,29.83
2023-03-02T05:13:38.020Z,32.50
2023-03-02T05:15:43.544Z,32.75
2023-03-02T05:17:46.584Z,31.90
2023-03-02T05:19:49.392Z,33.35
2023-03-02T05:21:52.539Z,34.60
2023-03-02T05:23:55.595Z,33.50
2023-03-02T05:25:58.743Z,32.22
2023-03-02T05:28:03.685Z,36.35
2023-03-02T05:30:07.744Z,32.25
2023-03-02T05:32:12.466Z,34.70
2023-03-02T05:34:17.170Z,33.45
2023-03-02T05:36:21.655Z,32.55
2023-03-02T05:38:27.378Z,29.25
2023-03-02T05:40:30.390Z,32.60
2023-03-02T05:42:33.780Z,35.15
2023-03-02T05:44:37.851Z,30.52
2023-03-02T05:46:41.623Z,32.63
2023-03-02T05:48:45.329Z,33.28
2023-03-02T05:50:48.041Z,30.88
2023-03-02T05:52:51.411Z,33.88
2023-03-02T05:54:54.057Z,32.80
2023-03-02T05:56:56.695Z,32.15
2023-03-02T05:58:59.366Z,29.70
2023-03-02T06:01:03.494Z,33.75
2023-03-02T06:03:06.231Z,31.85
2023-03-02T06:05:11.493Z,33.83
2023-03-02T06:07:14.646Z,31.17
2023-03-02T06:09:17.322Z,36.50
2023-03-02T06:11:20.059Z,31.98
2023-03-02T06:13:22.742Z,31.10
2023-03-02T06:15:25.476Z,31.67
2023-03-02T06:17:29.621Z,35.58
2023-03-02T06:19:32.296Z,35.30
2023-03-02T06:21:35.020Z,35.25
2023-03-02T06:23:37.798Z,31.50
2023-03-02T06:25:43.641Z,34.72
2023-03-02T06:27:46.820Z,33.40
2023-03-02T06:29:49.680Z,37.72
2023-03-02T06:31:52.604Z,33.45
2023-03-02T06:33:57.268Z,38.20
2023-03-02T06:36:00.170Z,36.47
2023-03-02T06:38:03.133Z,34.65
2023-03-02T06:40:10.246Z,33.70
2023-03-02T06:42:13.379Z,34.42
2023-03-02T06:44:17.555Z,34.40
2023-03-02T06:46:20.300Z,32.05
2023-03-02T06:48:23.076Z,33.75
2023-03-02T06:50:27.549Z,32.67
2023-03-02T06:52:30.291Z,29.48
2023-03-02T06:54:33.046Z,32.70
2023-03-02T06:56:36.210Z,32.03
2023-03-02T06:58:38.925Z,29.95
2023-03-02T07:00:41.802Z,29.13
2023-03-02T07:02:45.772Z,32.03
2023-03-02T07:04:48.505Z,30.35
2023-03-02T07:06:52.586Z,31.88
2023-03-02T07:08:55.374Z,29.35
2023-03-02T07:10:58.154Z,30.73
2023-03-02T07:13:00.933Z,35.10
2023-03-02T07:15:03.872Z,31.67
2023-03-02T07:17:06.736Z,37.42
2023-03-02T07:19:13.101Z,33.28
2023-03-02T07:21:15.911Z,32.35
2023-03-02T07:23:19.982Z,33.42
2023-03-02T07:25:22.697Z,36.25
2023-03-02T07:27:25.505Z,36.88
2023-03-02T07:29:28.319Z,33.63
2023-03-02T07:31:31.354Z,37.22
2023-03-02T07:33:34.482Z,32.20
2023-03-02T07:35:37.321Z,31.67
2023-03-02T07:37:40.386Z,30.17
2023-03-02T07:39:44.554Z,32.80
2023-03-02T07:41:47.616Z,29.90
2023-03-02T07:43:50.500Z,36.83
2023-03-02T07:45:53.630Z,36.80
2023-03-02T07:47:56.458Z,35.40
2023-03-02T07:49:59.288Z,30.45
2023-03-02T07:52:02.101Z,30.23
2023-03-02T07:54:05.074Z,29.50
2023-03-02T07:56:11.192Z,28.38
2023-03-02T07:58:13.940Z,28.83
2023-03-02T08:00:17.812Z,30.00
2023-03-02T08:02:21.368Z,28.00
2023-03-02T08:04:24.891Z,32.03
2023-03-02T08:06:27.582Z,30.20
2023-03-02T08:08:30.307Z,32.22
2023-03-02T08:10:35.089Z,36.90
2023-03-02T08:12:39.274Z,32.10
2023-03-02T08:14:42.017Z,31.27
2023-03-02T08:16:44.742Z,29.00
2023-03-02T08:18:48.113Z,28.38
2023-03-02T08:20:50.878Z,29.75
2023-03-02T08:22:53.774Z,28.38
2023-03-02T08:24:56.594Z,35.33
2023-03-02T08:27:01.971Z,29.13
2023-03-02T08:29:06.629Z,35.28
2023-03-02T08:31:10.753Z,28.77
2023-03-02T08:33:13.560Z,30.58
2023-03-02T08:35:16.402Z,28.80
2023-03-02T08:37:19.537Z,30.48
2023-03-02T08:39:23.602Z,28.70
2023-03-02T08:41:26.756Z,28.35
2023-03-02T08:43:29.543Z,29.25
2023-03-02T08:45:35.584Z,27.92
2023-03-02T08:47:38.409Z,28.52
2023-03-02T08:49:41.368Z,29.13
2023-03-02T08:51:44.553Z,30.08
2023-03-02T08:53:50.391Z,31.08
2023-03-02T08:55:53.255Z,29.20
2023-03-02T08:57:56.024Z,32.25
2023-03-02T08:59:58.760Z,27.63
2023-03-02T09:02:02.866Z,29.00
2023-03-02T09:04:07.618Z,26.27
2023-03-02T09:06:10.438Z,26.83
2023-03-02T09:08:13.977Z,31.77
2023-03-02T09:10:16.731Z,31.08
2023-03-02T09:12:19.472Z,31.48
2023-03-02T09:14:22.355Z,30.75
2023-03-02T09:16:25.755Z,27.25
2023-03-02T09:18:30.657Z,31.25
2023-03-02T09:20:33.998Z,28.02
2023-03-02T09:22:37.068Z,27.67
2023-03-02T09:24:39.898Z,30.15
2023-03-02T09:26:42.551Z,33.72
2023-03-02T09:28:45.225Z,29.63
2023-03-02T09:30:50.062Z,30.67
2023-03-02T09:32:52.872Z,34.47
2023-03-02T09:34:56.944Z,31.23
2023-03-02T09:36:59.714Z,31.25
2023-03-02T09:39:08.412Z,31.23
2023-03-02T09:41:40.581Z,27.98
2023-03-02T09:43:48.923Z,27.27
2023-03-02T09:46:05.042Z,25.67
2023-03-02T09:48:20.765Z,27.73
2023-03-02T09:50:32.483Z,31.40
2023-03-02T09:52:40.572Z,34.67
2023-03-02T09:54:43.526Z,30.15
2023-03-02T09:56:49.658Z,27.50
2023-03-02T09:58:59.205Z,26.50
2023-03-02T10:01:07.497Z,25.08
2023-03-02T10:03:18.238Z,29.88
2023-03-02T10:05:24.257Z,30.50
2023-03-02T10:07:30.465Z,32.17
2023-03-02T10:09:33.371Z,28.52
2023-03-02T10:11:47.715Z,25.73
2023-03-02T10:13:55.635Z,32.92
2023-03-02T10:16:13.869Z,31.52
2023-03-02T10:18:22.214Z,32.97
2023-03-02T10:20:34.592Z,32.47
2023-03-02T10:22:42.241Z,26.48
2023-03-02T10:24:51.278Z,29.80
2023-03-02T10:26:55.749Z,30.27
2023-03-02T10:29:05.223Z,27.55
2023-03-02T10:31:10.799Z,25.67
2023-03-02T10:33:18.144Z,25.85
2023-03-02T10:35:24.020Z,39.50
2023-03-02T10:37:31.780Z,30.23
2023-03-02T10:39:35.846Z,35.90
2023-03-02T10:41:44.117Z,37.45
2023-03-02T10:43:49.916Z,26.90
2023-03-02T10:46:00.790Z,29.05
2023-03-02T10:48:05.027Z,26.60
2023-03-02T10:50:23.033Z,32.00
2023-03-02T10:52:27.609Z,30.50
2023-03-02T10:54:32.931Z,28.90
2023-03-02T10:56:37.094Z,35.17
2023-03-02T10:58:39.864Z,26.83
2023-03-02T11:00:42.855Z,23.95
2023-03-02T11:02:53.287Z,25.63
2023-03-02T11:04:58.289Z,28.30
2023-03-02T11:07:09.108Z,33.50
2023-03-02T11:09:15.714Z,29.27
2023-03-02T11:11:23.682Z,23.95
2023-03-02T11:13:32.213Z,24.90
2023-03-02T11:15:38.158Z,27.35
2023-03-02T11:17:44.496Z,25.90
2023-03-02T11:19:47.431Z,33.17
2023-03-02T11:21:57.754Z,31.98
2023-03-02T11:24:08.802Z,26.02
2023-03-02T11:26:20.055Z,25.92
2023-03-02T11:28:34.233Z,27.40
2023-03-02T11:30:42.769Z,24.92
2023-03-02T11:32:53.141Z,32.10
2023-03-02T11:34:59.259Z,25.75
2023-03-02T11:37:14.826Z,34.35
2023-03-02T11:39:21.703Z,27.67
2023-03-02T11:41:31.794Z,27.15
2023-03-02T11:43:40.905Z,25.65
2023-03-02T11:45:46.952Z,27.65
2023-03-02T11:48:02.357Z,29.20
2023-03-02T11:50:07.869Z,28.15
2023-03-02T11:52:19.806Z,25.88
2023-03-02T11:54:33.913Z,26.33
2023-03-02T11:56:40.592Z,27.52
2023-03-02T11:58:47.802Z,26.35
2023-03-02T12:00:53.213Z,27.70
2023-03-02T12:03:04.018Z,28.73
2023-03-02T12:05:09.367Z,27.13
2023-03-02T12:07:22.900Z,29.77
2023-03-02T12:09:38.045Z,26.35
2023-03-02T12:11:42.069Z,41.60
2023-03-02T12:13:58.508Z,36.03
2023-03-02T12:16:02.006Z,36.30
2023-03-02T12:18:30.446Z,30.65
2023-03-02T12:20:36.065Z,25.92
2023-03-02T12:22:40.303Z,29.35
2023-03-02T12:24:45.823Z,31.05
2023-03-02T12:26:48.654Z,31.58
2023-03-02T12:29:02.128Z,27.70
2023-03-02T12:31:11.895Z,27.05
2023-03-02T12:33:22.096Z,28.45
2023-03-02T12:35:26.125Z,27.27
2023-03-02T12:37:32.882Z,28.15
2023-03-02T12:39:51.649Z,30.13
2023-03-02T12:42:13.623Z,27.88
2023-03-02T12:44:43.868Z,29.10
2023-03-02T12:46:48.265Z,29.80
2023-03-02T12:49:01.577Z,27.15
2023-03-02T12:51:07.222Z,33.47
2023-03-02T12:53:18.969Z,32.65
2023-03-02T12:55:21.903Z,25.35
2023-03-02T12:57:24.686Z,38.63
2023-03-02T12:59:30.288Z,25.85
2023-03-02T13:01:35.439Z,27.23
2023-03-02T13:03:47.302Z,30.38
2023-03-02T13:05:50.610Z,28.42
2023-03-02T13:08:01.208Z,31.27
2023-03-02T13:10:09.750Z,26.35
2023-03-02T13:12:15.051Z,49.47
2023-03-02T13:14:21.988Z,36.38
2023-03-02T13:16:28.134Z,32.60
2023-03-02T13:18:33.383Z,28.27
2023-03-02T13:20:36.239Z,26.52
2023-03-02T13:22:39.175Z,30.00
2023-03-02T13:24:49.573Z,25.95
2023-03-02T13:26:57.139Z,34.58
2023-03-02T13:29:05.677Z,24.92
2023-03-02T13:31:20.630Z,27.65
2023-03-02T13:33:26.521Z,39.72
2023-03-02T13:35:31.834Z,28.73
2023-03-02T13:37:40.461Z,35.85
2023-03-02T13:39:43.249Z,37.88
2023-03-02T13:41:54.363Z,26.77
2023-03-02T13:43:58.372Z,29.63
2023-03-02T13:46:03.313Z,30.38
2023-03-02T13:48:15.669Z,32.35
2023-03-02T13:50:21.833Z,27.50
2023-03-02T13:52:30.410Z,27.80
2023-03-02T13:54:35.801Z,30.77
2023-03-02T13:56:41.206Z,46.92
2023-03-02T13:58:44.120Z,33.33
2023-03-02T14:00:47.140Z,26.38
2023-03-02T14:02:50.537Z,32.03
2023-03-02T14:04:54.241Z,27.58
2023-03-02T14:06:58.471Z,31.50
2023-03-02T14:09:01.228Z,25.90
2023-03-02T14:11:05.924Z,25.95
2023-03-02T14:13:12.186Z,26.23
2023-03-02T14:15:17.064Z,25.60
2023-03-02T14:17:24.341Z,22.67
2023-03-02T14:19:27.121Z,23.80
2023-03-02T14:21:30.101Z,28.30
2023-03-02T14:23:34.395Z,30.02
2023-03-02T14:25:37.131Z,24.15
2023-03-02T14:27:41.006Z,29.33
2023-03-02T14:29:45.138Z,25.42
2023-03-02T14:31:48.202Z,23.58
2023-03-02T14:33:51.055Z,27.05
2023-03-02T14:35:57.300Z,24.25
2023-03-02T14:38:00.197Z,25.45
2023-03-02T14:40:06.294Z,23.42
2023-03-02T14:42:13.596Z,25.27
2023-03-02T14:44:16.315Z,24.17
2023-03-02T14:46:19.157Z,23.77
2023-03-02T14:48:21.909Z,23.85
2023-03-02T14:50:24.710Z,27.10
2023-03-02T14:52:33.809Z,27.08
2023-03-02T14:54:41.639Z,27.02
2023-03-02T14:56:46.834Z,26.92
2023-03-02T14:58:51.314Z,29.63
2023-03-02T15:00:54.040Z,24.27
2023-03-02T15:02:56.852Z,29.50
2023-03-02T15:04:59.624Z,27.00
2023-03-02T15:07:02.378Z,26.80
2023-03-02T15:09:05.136Z,22.00
2023-03-02T15:11:08.118Z,21.90
2023-03-02T15:13:13.741Z,25.07
2023-03-02T15:15:16.973Z,24.43
2023-03-02T15:17:22.077Z,22.53
2023-03-02T15:19:25.064Z,27.10
2023-03-02T15:21:28.063Z,22.00
2023-03-02T15:23:31.005Z,23.80
2023-03-02T15:25:33.674Z,27.60
2023-03-02T15:27:36.485Z,24.77
2023-03-02T15:29:45.935Z,21.80
2023-03-02T15:31:49.029Z,25.03
2023-03-02T15:33:52.224Z,27.10
2023-03-02T15:35:55.690Z,29.27
2023-03-02T15:38:02.481Z,28.93
2023-03-02T15:40:07.175Z,23.00
2023-03-02T15:42:11.213Z,24.43
2023-03-02T15:44:21.910Z,22.67
2023-03-02T15:46:27.896Z,24.43
2023-03-02T15:48:31.097Z,24.30
2023-03-02T15:50:33.952Z,27.27
2023-03-02T15:52:36.742Z,26.63
2023-03-02T15:54:39.680Z,28.37
2023-03-02T15:56:44.515Z,30.30
2023-03-02T15:58:48.580Z,27.20
2023-03-02T16:00:53.480Z,29.27
2023-03-02T16:02:57.803Z,25.20
2023-03-02T16:05:00.755Z,27.87
2023-03-02T16:07:04.174Z,28.33
2023-03-02T16:09:07.203Z,24.37
2023-03-02T16:11:12.194Z,28.57
2023-03-02T16:13:15.067Z,26.33
2023-03-02T16:15:18.383Z,24.37
2023-03-02T16:17:21.452Z,24.93
2023-03-02T16:19:25.608Z,34.67
2023-03-02T16:21:29.613Z,30.97
2023-03-02T16:23:32.576Z,27.95
2023-03-02T16:25:36.213Z,43.00
2023-03-02T16:27:38.981Z,33.72
2023-03-02T16:29:43.257Z,36.17
2023-03-02T16:31:49.836Z,44.05
2023-03-02T16:33:52.821Z,42.75
2023-03-02T16:35:57.359Z,37.80
2023-03-02T16:38:00.478Z,33.58
2023-03-02T16:40:03.640Z,37.83
2023-03-02T16:42:06.630Z,28.73
2023-03-02T16:44:10.076Z,27.98
2023-03-02T16:46:13.058Z,26.60
2023-03-02T16:48:15.875Z,29.92
2023-03-02T16:50:19.169Z,28.13
2023-03-02T16:52:23.887Z,31.45
2023-03-02T16:54:29.088Z,31.73
2023-03-02T16:56:31.975Z,31.10
2023-03-02T16:58:38.180Z,27.40
2023-03-02T17:00:42.509Z,28.60
2023-03-02T17:02:45.740Z,28.70
2023-03-02T17:04:48.477Z,34.03
2023-03-02T17:07:00.512Z,30.42
2023-03-02T17:09:05.192Z,27.20
2023-03-02T17:11:08.342Z,32.22
2023-03-02T17:13:12.139Z,37.38
2023-03-02T17:15:14.966Z,42.80
2023-03-02T17:17:17.657Z,34.25
2023-03-02T17:19:20.725Z,34.42
2023-03-02T17:21:24.448Z,37.17
2023-03-02T17:23:28.629Z,33.05
2023-03-02T17:25:32.857Z,35.15
2023-03-02T17:27:35.607Z,37.20
2023-03-02T17:29:38.454Z,29.92
2023-03-02T17:31:41.171Z,32.17
2023-03-02T17:33:43.887Z,29.67
2023-03-02T17:35:47.184Z,31.15
2023-03-02T17:37:50.332Z,33.35
2023-03-02T17:39:53.414Z,31.08
2023-03-02T17:41:57.452Z,32.45
2023-03-02T17:44:00.395Z,35.65
2023-03-02T17:46:14.393Z,31.73
2023-03-02T17:48:17.112Z,32.78
2023-03-02T17:50:20.341Z,33.72
2023-03-02T17:52:23.052Z,30.58
2023-03-02T17:54:25.735Z,35.03
2023-03-02T17:56:29.998Z,30.92
2023-03-02T17:58:44.270Z,30.92
2023-03-02T18:00:48.164Z,29.75
2023-03-02T18:02:51.566Z,33.78
2023-03-02T18:04:54.372Z,30.13
2023-03-02T18:06:57.495Z,30.75
2023-03-02T18:09:00.378Z,31.45
2023-03-02T18:11:03.194Z,34.10
2023-03-02T18:13:05.996Z,30.45
2023-03-02T18:15:11.272Z,32.30
2023-03-02T18:17:14.993Z,31.15
2023-03-02T18:19:17.756Z,31.33
2023-03-02T18:21:20.508Z,34.15
2023-03-02T18:23:23.390Z,34.72
2023-03-02T18:25:26.946Z,34.50
2023-03-02T18:27:29.951Z,32.90
2023-03-02T18:29:33.651Z,36.17
2023-03-02T18:31:37.810Z,34.38
2023-03-02T18:33:40.723Z,32.78
2023-03-02T18:35:43.701Z,37.20
2023-03-02T18:37:46.624Z,30.10
2023-03-02T18:39:50.089Z,29.42
2023-03-02T18:41:52.973Z,31.17
2023-03-02T18:43:55.775Z,31.10
2023-03-02T18:45:58.588Z,36.13
2023-03-02T18:48:02.809Z,34.63
2023-03-02T18:50:06.316Z,36.78
2023-03-02T18:52:09.833Z,36.53
2023-03-02T18:54:12.590Z,38.72
2023-03-02T18:56:16.035Z,34.00
2023-03-02T18:58:20.334Z,34.83
2023-03-02T19:00:27.722Z,30.42
2023-03-02T19:02:30.663Z,43.08
2023-03-02T19:04:34.868Z,45.65
2023-03-02T19:06:37.651Z,38.85
2023-03-02T19:08:40.623Z,49.30
2023-03-02T19:10:43.423Z,46.30
2023-03-02T19:12:46.286Z,39.50
2023-03-02T19:14:49.198Z,37.33
2023-03-02T19:16:52.102Z,35.63
2023-03-02T19:18:54.981Z,35.40
2023-03-02T19:20:59.546Z,39.38
2023-03-02T19:23:02.740Z,42.45
2023-03-02T19:25:06.728Z,44.53
2023-03-02T19:27:11.553Z,39.47
2023-03-02T19:29:14.577Z,40.45
2023-03-02T19:31:17.822Z,38.78
2023-03-02T19:33:20.800Z,37.97
2023-03-02T19:35:26.431Z,41.35
2023-03-02T19:37:30.611Z,45.40
2023-03-02T19:39:33.424Z,50.25
2023-03-02T19:41:36.434Z,58.97
2023-03-02T19:43:40.452Z,46.95
2023-03-02T19:45:43.270Z,40.10
2023-03-02T19:47:47.034Z,36.75
2023-03-02T19:49:49.793Z,40.33
2023-03-02T19:51:52.602Z,37.92
2023-03-02T19:53:57.912Z,39.88
2023-03-02T19:56:01.404Z,40.80
2023-03-02T19:58:05.214Z,37.78
2023-03-02T20:00:12.115Z,31.35
2023-03-02T20:02:15.601Z,31.67
2023-03-02T20:04:19.239Z,32.58
2023-03-02T20:06:24.909Z,33.55
2023-03-02T20:08:27.720Z,34.20
2023-03-02T20:10:34.252Z,33.95
2023-03-02T20:12:37.632Z,32.88
2023-03-02T20:14:42.884Z,37.97
2023-03-02T20:16:45.757Z,39.53
2023-03-02T20:18:48.529Z,35.88
2023-03-02T20:20:51.285Z,31.08
2023-03-02T20:22:54.119Z,35.05
2023-03-02T20:24:57.077Z,38.58
2023-03-02T20:27:01.139Z,31.90
2023-03-02T20:29:05.486Z,33.88
2023-03-02T20:31:11.927Z,40.92
2023-03-02T20:33:15.961Z,42.50
2023-03-02T20:35:18.842Z,42.03
2023-03-02T20:37:22.604Z,44.33
2023-03-02T20:39:29.518Z,38.65
2023-03-02T20:41:32.824Z,37.92
2023-03-02T20:43:37.235Z,36.35
2023-03-02T20:45:40.827Z,39.67
2023-03-02T20:47:44.587Z,32.15
2023-03-02T20:49:47.462Z,33.10
2023-03-02T20:51:54.739Z,35.45
2023-03-02T20:53:57.661Z,40.20
2023-03-02T20:56:00.386Z,35.25
2023-03-02T20:58:05.381Z,36.15
2023-03-02T21:00:15.746Z,36.53
2023-03-02T21:02:20.333Z,42.10
2023-03-02T21:04:23.690Z,51.40
2023-03-02T21:06:27.195Z,50.13
2023-03-02T21:08:30.649Z,46.33
2023-03-02T21:10:37.606Z,46.20
2023-03-02T21:12:40.639Z,42.00
2023-03-02T21:14:43.674Z,43.72
2023-03-02T21:16:47.811Z,43.90
2023-03-02T21:18:50.639Z,36.90
2023-03-02T21:20:53.466Z,40.10
2023-03-02T21:22:56.635Z,40.22
2023-03-02T21:24:59.520Z,38.42
2023-03-02T21:27:02.590Z,39.70
2023-03-02T21:29:06.235Z,43.40
2023-03-02T21:31:09.068Z,43.75
2023-03-02T21:33:13.306Z,45.22
2023-03-02T21:35:19.835Z,50.10
2023-03-02T21:37:22.661Z,41.95
2023-03-02T21:39:25.474Z,46.05
2023-03-02T21:41:28.416Z,47.30
2023-03-02T21:43:31.234Z,43.35
2023-03-02T21:45:34.498Z,42.97
2023-03-02T21:47:39.462Z,39.33
2023-03-02T21:49:43.610Z,43.88
2023-03-02T21:51:48.895Z,43.90
2023-03-02T21:53:53.540Z,42.53
2023-03-02T21:55:56.420Z,39.75
2023-03-02T21:57:59.712Z,49.45
2023-03-02T22:00:04.526Z,47.08
2023-03-02T22:02:07.419Z,47.08
2023-03-02T22:04:10.343Z,47.97
2023-03-02T22:06:18.272Z,42.20
2023-03-02T22:08:22.204Z,49.80
2023-03-02T22:10:31.829Z,46.75
2023-03-02T22:12:34.619Z,51.83
2023-03-02T22:14:37.922Z,63.67
2023-03-02T22:16:42.287Z,57.22
2023-03-02T22:18:46.829Z,51.85
2023-03-02T22:20:52.102Z,46.60
2023-03-02T22:22:56.201Z,46.38
2023-03-02T22:24:58.990Z,51.75
2023-03-02T22:27:10.060Z,54.85
2023-03-02T22:29:16.674Z,59.03
2023-03-02T22:31:21.267Z,40.42
2023-03-02T22:33:26.224Z,39.05
2023-03-02T22:35:29.057Z,38.45
2023-03-02T22:37:34.880Z,40.33
2023-03-02T22:39:41.953Z,41.15
2023-03-02T22:41:44.994Z,41.58
2023-03-02T22:43:49.460Z,38.20
2023-03-02T22:45:52.999Z,43.80
2023-03-02T22:47:55.781Z,39.00
2023-03-02T22:50:01.244Z,41.85
2023-03-02T22:52:12.527Z,36.80
2023-03-02T22:54:24.963Z,38.30
2023-03-02T22:56:31.824Z,39.50
2023-03-02T22:58:45.974Z,38.35
2023-03-02T23:00:48.840Z,39.30
2023-03-02T23:02:53.710Z,41.78
2023-03-02T23:04:56.493Z,36.22
2023-03-02T23:07:01.015Z,40.58
2023-03-02T23:09:06.752Z,41.03
2023-03-02T23:11:16.975Z,42.17
2023-03-02T23:13:24.645Z,40.92
2023-03-02T23:15:28.929Z,83.55
2023-03-02T23:17:36.135Z,109.07
2023-03-02T23:19:38.863Z,85.28
2023-03-02T23:21:46.361Z,71.30
2023-03-02T23:23:49.842Z,53.13
2023-03-02T23:25:52.514Z,47.50
2023-03-02T23:27:55.202Z,47.75
2023-03-02T23:29:59.251Z,48.95
2023-03-02T23:32:02.079Z,50.78
2023-03-02T23:34:04.113Z,51.92
2023-03-02T23:36:07.721Z,48.75
2023-03-02T23:38:10.386Z,44.17
2023-03-02T23:40:13.564Z,45.78
2023-03-02T23:42:16.252Z,43.83
2023-03-02T23:44:19.816Z,40.50
2023-03-02T23:46:23.828Z,46.30
2023-03-02T23:48:26.477Z,45.33
2023-03-02T23:50:29.193Z,43.95
2023-03-02T23:52:31.900Z,43.17
2023-03-02T23:54:34.567Z,44.40
2023-03-02T23:56:37.274Z,42.13
2023-03-02T23:58:40.172Z,43.90
